Time;durP1;ratioP1;P1;durP2;ratioP2;P2;SDS_P1;SDS_P2;PMS_P1;PMS_P2;Temp;Humidity;BMP_temperature;BMP_pressure;BME280_temperature;BME280_humidity;BME280_pressure;Samples;Min_cycle;Max_cycle;Signal;HPM_P1;HPM_P2
2021/11/06 00:02:04;;;;;;;7.37;6.67;;;;;;;8.08;78.92;96735.31;4974557;28;20220;-83
2021/11/06 00:04:31;;;;;;;13.23;11.93;;;;;;;8.11;78.19;96732.50;4964128;28;20208;-84
2021/11/06 00:06:57;;;;;;;47.20;40.80;;;;;;;8.01;79.31;96728.31;4955172;28;20778;-82
2021/11/06 00:09:24;;;;;;;13.07;11.83;;;;;;;8.04;78.59;96731.41;4955230;29;20205;-83
2021/11/06 00:11:50;;;;;;;8.90;8.00;;;;;;;8.06;78.66;96734.66;4955596;29;20616;-84
2021/11/06 00:14:18;;;;;;;8.73;7.67;;;;;;;8.06;78.95;96734.66;4955185;29;20212;-84
2021/11/06 00:16:45;;;;;;;7.77;6.97;;;;;;;8.11;78.17;96739.38;4954717;28;20280;-83
2021/11/06 00:19:11;;;;;;;7.10;6.40;;;;;;;8.13;77.67;96730.59;4956661;29;20192;-83
2021/11/06 00:21:38;;;;;;;6.57;5.97;;;;;;;8.10;78.06;96722.34;4955107;29;20224;-84
2021/11/06 00:24:05;;;;;;;5.77;5.27;;;;;;;8.10;77.80;96725.72;4956017;29;20204;-83
2021/11/06 00:26:31;;;;;;;6.53;5.93;;;;;;;8.09;78.22;96724.09;4955710;29;20669;-82
2021/11/06 00:28:57;;;;;;;5.90;5.40;;;;;;;8.11;77.76;96723.97;4955047;28;20228;-82
2021/11/06 00:31:25;;;;;;;5.90;5.40;;;;;;;8.05;78.43;96719.41;4955424;29;20211;-80
2021/11/06 00:33:52;;;;;;;6.27;5.67;;;;;;;8.07;78.26;96733.72;4955982;29;20204;-83
2021/11/06 00:36:18;;;;;;;6.37;5.77;;;;;;;7.99;78.95;96723.31;4955261;29;20272;-84
2021/11/06 00:38:45;;;;;;;7.23;5.83;;;;;;;8.02;78.22;96727.34;4955266;28;20228;-82
2021/11/06 00:41:12;;;;;;;6.57;5.83;;;;;;;8.04;78.53;96717.78;4955254;29;20231;-82
2021/11/06 00:43:38;;;;;;;6.03;5.53;;;;;;;8.02;78.41;96717.91;4955730;29;20223;-83
2021/11/06 00:46:06;;;;;;;6.20;5.60;;;;;;;8.03;78.82;96716.97;4954051;29;20342;-81
2021/11/06 00:48:34;;;;;;;6.50;5.90;;;;;;;8.03;78.84;96719.53;4955538;28;20271;-84
2021/11/06 00:51:01;;;;;;;7.33;5.93;;;;;;;8.02;78.90;96724.78;4955591;28;20200;-83
2021/11/06 00:53:27;;;;;;;8.87;7.10;;;;;;;8.06;78.49;96723.59;4959007;29;20201;-84
2021/11/06 00:55:54;;;;;;;7.27;6.57;;;;;;;8.07;78.81;96720.09;4959026;29;20212;-82
2021/11/06 00:58:20;;;;;;;8.13;6.70;;;;;;;8.06;78.45;96721.84;4958321;28;20235;-84
2021/11/06 01:00:46;;;;;;;10.87;6.50;;;;;;;8.08;78.41;96729.41;4958795;29;20239;-83
2021/11/06 01:03:13;;;;;;;7.57;6.80;;;;;;;7.98;78.83;96722.50;4976904;28;20196;-84
2021/11/06 01:05:41;;;;;;;6.87;6.20;;;;;;;8.00;78.80;96727.50;4978336;28;20196;-84
2021/11/06 01:08:07;;;;;;;7.23;6.53;;;;;;;7.94;79.42;96728.81;4977520;28;20740;-84
2021/11/06 01:10:34;;;;;;;8.83;7.10;;;;;;;7.94;79.23;96722.88;4977633;28;20207;-81
2021/11/06 01:13:00;;;;;;;7.50;6.70;;;;;;;7.91;79.50;96723.94;4970381;28;20216;-83
2021/11/06 01:15:27;;;;;;;6.97;6.27;;;;;;;7.91;79.36;96723.94;4958290;29;20224;-82
2021/11/06 01:17:53;;;;;;;7.10;6.40;;;;;;;7.94;79.45;96716.00;4957335;28;20294;-81
2021/11/06 01:20:20;;;;;;;6.70;6.00;;;;;;;8.01;78.55;96713.72;4958136;29;20205;-82
2021/11/06 01:22:48;;;;;;;7.87;6.43;;;;;;;7.95;79.20;96720.19;4963540;28;20231;-81
2021/11/06 01:25:15;;;;;;;7.10;6.40;;;;;;;7.91;79.96;96723.94;4977318;28;20219;-82
2021/11/06 01:27:42;;;;;;;7.07;6.27;;;;;;;7.93;79.18;96718.69;4976892;28;20235;-85
2021/11/06 01:30:10;;;;;;;7.73;6.33;;;;;;;7.94;79.28;96713.44;4977511;28;20203;-81
2021/11/06 01:32:38;;;;;;;6.80;6.20;;;;;;;8.00;79.35;96718.97;4977407;28;20615;-81
2021/11/06 01:35:05;;;;;;;7.10;6.40;;;;;;;7.96;79.19;96719.25;4977288;28;20299;-84
2021/11/06 01:37:32;;;;;;;7.40;6.70;;;;;;;8.01;79.02;96715.47;4976813;28;20262;-83
2021/11/06 01:40:00;;;;;;;6.90;6.20;;;;;;;8.05;79.29;96712.53;4977116;28;20579;-84
2021/11/06 01:42:27;;;;;;;6.47;5.87;;;;;;;8.06;79.21;96710.75;4977040;28;20228;-83
2021/11/06 01:44:54;;;;;;;6.53;5.93;;;;;;;8.08;79.09;96717.34;4976781;28;20723;-81
2021/11/06 01:47:20;;;;;;;7.30;6.60;;;;;;;8.12;78.94;96712.78;4976681;28;20236;-83
2021/11/06 01:49:47;;;;;;;7.57;6.40;;;;;;;8.13;78.55;96712.66;4977314;28;20211;-84
2021/11/06 01:52:13;;;;;;;7.33;6.53;;;;;;;8.13;78.72;96716.97;4976761;28;20204;-83
2021/11/06 01:54:40;;;;;;;6.90;6.27;;;;;;;8.10;78.89;96714.66;4976703;28;20227;-83
2021/11/06 01:57:08;;;;;;;7.80;6.27;;;;;;;8.08;79.44;96719.91;4976365;28;20224;-83
2021/11/06 01:59:35;;;;;;;7.10;6.40;;;;;;;8.10;79.34;96709.53;4976753;28;20211;-85
2021/11/06 02:02:02;;;;;;;7.77;6.97;;;;;;;8.14;78.96;96713.47;4976783;28;20231;-84
2021/11/06 02:04:29;;;;;;;7.23;6.50;;;;;;;8.14;78.97;96711.72;4976126;28;20243;-84
2021/11/06 02:06:55;;;;;;;8.37;6.90;;;;;;;8.06;79.60;96709.00;4976242;28;20207;-84
2021/11/06 02:09:22;;;;;;;7.67;6.87;;;;;;;8.07;79.27;96713.19;4976261;28;20263;-85
2021/11/06 02:11:49;;;;;;;9.63;8.27;;;;;;;8.10;79.38;96712.09;4976456;28;20204;-83
2021/11/06 02:14:17;;;;;;;9.73;8.40;;;;;;;8.12;79.16;96708.47;4976232;28;20211;-82
2021/11/06 02:16:43;;;;;;;11.07;8.40;;;;;;;8.12;79.04;96705.91;4974385;28;20668;-84
2021/11/06 02:19:10;;;;;;;9.80;8.03;;;;;;;8.12;79.32;96705.09;4956321;29;20704;-82
2021/11/06 02:21:38;;;;;;;8.03;7.23;;;;;;;8.12;79.27;96703.31;4956725;29;20229;-82
2021/11/06 02:24:06;;;;;;;8.17;7.33;;;;;;;8.15;79.10;96704.81;4974334;28;20204;-84
2021/11/06 02:26:34;;;;;;;8.03;7.10;;;;;;;8.09;79.98;96702.78;4976253;28;20200;-85
2021/11/06 02:29:02;;;;;;;7.87;7.07;;;;;;;8.08;79.75;96699.41;4976157;28;20227;-84
2021/11/06 02:31:29;;;;;;;8.80;6.67;;;;;;;8.11;79.55;96704.28;4976185;28;20200;-83
2021/11/06 02:33:56;;;;;;;7.37;6.67;;;;;;;8.10;79.84;96702.66;4975241;28;20611;-84
2021/11/06 02:36:23;;;;;;;7.07;6.40;;;;;;;8.06;80.55;96697.94;4975875;28;20200;-85
2021/11/06 02:38:50;;;;;;;7.13;6.40;;;;;;;8.08;80.13;96701.19;4975871;28;20228;-83
2021/11/06 02:41:17;;;;;;;7.10;6.37;;;;;;;8.10;79.86;96712.91;4976142;28;20275;-84
2021/11/06 02:43:44;;;;;;;8.00;7.10;;;;;;;8.07;80.12;96705.50;4962804;28;20548;-84
2021/11/06 02:46:10;;;;;;;7.93;7.23;;;;;;;8.09;79.65;96703.59;4955812;28;20244;-83
2021/11/06 02:48:37;;;;;;;11.10;9.73;;;;;;;8.13;79.73;96704.94;4955907;29;20249;-83
2021/11/06 02:51:03;;;;;;;13.53;11.10;;;;;;;8.11;79.87;96700.91;4956275;29;20208;-84
2021/11/06 02:53:30;;;;;;;11.90;10.20;;;;;;;8.10;79.83;96699.28;4956531;29;20279;-84
2021/11/06 02:55:57;;;;;;;10.07;9.07;;;;;;;8.09;79.71;96703.59;4956288;28;20209;-83
2021/11/06 02:58:24;;;;;;;9.70;8.63;;;;;;;8.08;80.16;96704.53;4956151;29;20225;-84
2021/11/06 03:00:51;;;;;;;7.90;7.17;;;;;;;8.10;79.92;96705.22;4956242;28;20209;-84
2021/11/06 03:03:17;;;;;;;7.23;6.37;;;;;;;8.12;79.42;96702.53;4975393;28;20624;-81
2021/11/06 03:05:44;;;;;;;7.20;6.50;;;;;;;8.12;79.96;96708.47;4970935;28;20208;-84
2021/11/06 03:08:11;;;;;;;7.20;6.50;;;;;;;8.14;79.66;96704.00;4955781;28;20221;-83
2021/11/06 03:10:37;;;;;;;7.37;6.60;;;;;;;8.09;80.13;96707.91;4955902;29;20289;-84
2021/11/06 03:13:05;;;;;;;6.90;6.20;;;;;;;8.04;80.30;96713.47;4955825;29;20201;-81
2021/11/06 03:15:31;;;;;;;7.53;6.83;;;;;;;8.04;80.63;96707.53;4955445;28;20213;-84
2021/11/06 03:17:58;;;;;;;7.73;6.93;;;;;;;8.06;80.21;96714.16;4954995;28;20258;-83
2021/11/06 03:20:25;;;;;;;7.10;6.40;;;;;;;8.10;79.94;96712.91;4955693;29;20205;-84
2021/11/06 03:22:57;;;;;;;7.00;6.40;;;;;;;7.98;80.69;96709.66;4961431;28;20243;-84
2021/11/06 03:25:24;;;;;;;6.60;6.00;;;;;;;8.00;80.38;96712.09;4974427;28;20594;-83
2021/11/06 03:27:50;;;;;;;7.20;5.93;;;;;;;8.04;80.20;96715.22;4974296;28;20243;-85
2021/11/06 03:30:18;;;;;;;6.87;6.20;;;;;;;8.04;80.18;96717.78;4974387;28;20204;-84
2021/11/06 03:32:44;;;;;;;6.93;5.70;;;;;;;8.00;80.75;96714.66;4974509;28;20702;-84
2021/11/06 03:35:13;;;;;;;7.23;6.53;;;;;;;7.95;81.08;96719.38;4974585;28;20207;-84
2021/11/06 03:37:40;;;;;;;6.83;6.23;;;;;;;7.97;80.40;96725.19;4974562;28;20223;-82
2021/11/06 03:40:08;;;;;;;6.87;6.23;;;;;;;8.00;80.46;96724.91;4974300;28;20270;-82
2021/11/06 03:42:35;;;;;;;6.80;6.20;;;;;;;7.98;80.49;96724.25;4974329;28;20243;-82
2021/11/06 03:45:01;;;;;;;6.33;5.67;;;;;;;7.98;80.38;96725.06;4974113;28;20232;-83
2021/11/06 03:47:29;;;;;;;6.40;5.80;;;;;;;8.01;79.94;96733.44;4974313;28;20324;-83
2021/11/06 03:49:56;;;;;;;6.57;5.97;;;;;;;8.01;80.35;96733.44;4974132;28;20619;-84
2021/11/06 03:52:22;;;;;;;6.60;5.97;;;;;;;8.05;80.10;96730.47;4974596;28;20247;-82
2021/11/06 03:54:49;;;;;;;6.03;5.43;;;;;;;8.04;80.00;96731.41;4974241;28;20234;-84
2021/11/06 03:57:16;;;;;;;6.90;6.20;;;;;;;8.00;79.91;96729.25;4974009;28;20231;-85
2021/11/06 03:59:42;;;;;;;6.10;5.50;;;;;;;8.00;79.80;96721.53;4973890;28;20204;-83
2021/11/06 04:02:09;;;;;;;6.53;5.90;;;;;;;7.96;80.17;96723.56;4974106;28;20457;-81
2021/11/06 04:04:36;;;;;;;6.50;5.90;;;;;;;7.95;79.99;96717.63;4974363;28;20587;-83
2021/11/06 04:07:03;;;;;;;7.00;6.37;;;;;;;7.90;80.07;96724.88;4973584;28;20607;-84
2021/11/06 04:09:30;;;;;;;7.40;6.70;;;;;;;7.87;80.10;96735.44;4974435;28;20216;-83
2021/11/06 04:11:56;;;;;;;6.90;6.30;;;;;;;7.90;79.99;96729.22;4973957;28;20219;-81
2021/11/06 04:14:23;;;;;;;6.90;6.30;;;;;;;7.92;79.94;96727.31;4956079;28;20212;-84
2021/11/06 04:16:49;;;;;;;6.77;6.17;;;;;;;7.96;80.18;96723.56;4954622;28;20224;-85
2021/11/06 04:19:16;;;;;;;7.17;6.47;;;;;;;7.94;80.17;96726.25;4955101;29;20208;-83
2021/11/06 04:21:44;;;;;;;7.53;6.23;;;;;;;7.94;79.52;96730.56;4954859;29;20208;-83
2021/11/06 04:24:10;;;;;;;6.53;5.90;;;;;;;7.92;79.65;96730.69;4954767;29;20204;-82
2021/11/06 04:26:37;;;;;;;6.80;6.10;;;;;;;7.81;79.93;96730.81;4955781;28;20208;-81
2021/11/06 04:29:03;;;;;;;7.10;6.40;;;;;;;7.77;80.35;96729.44;4958896;28;20234;-82
2021/11/06 04:31:30;;;;;;;6.83;6.13;;;;;;;7.78;80.35;96730.25;4958792;29;20221;-84
2021/11/06 04:33:56;;;;;;;7.20;6.50;;;;;;;7.79;80.67;96737.00;4959039;29;20572;-81
2021/11/06 04:36:23;;;;;;;6.83;6.13;;;;;;;7.83;80.27;96735.81;4958724;29;20205;-83
2021/11/06 04:38:50;;;;;;;6.30;5.70;;;;;;;7.85;79.97;96728.81;4959381;28;20271;-82
2021/11/06 04:41:17;;;;;;;6.93;5.67;;;;;;;7.83;80.06;96723.81;4957896;29;20212;-83
2021/11/06 04:43:44;;;;;;;6.83;6.20;;;;;;;7.77;80.07;96729.44;4958953;29;20231;-84
2021/11/06 04:46:11;;;;;;;7.83;6.60;;;;;;;7.75;79.88;96735.66;4957870;28;20605;-81
2021/11/06 04:48:37;;;;;;;7.23;6.53;;;;;;;7.74;79.88;96734.84;4958541;28;20231;-84
2021/11/06 04:51:04;;;;;;;7.23;6.53;;;;;;;7.70;80.07;96732.69;4958313;29;20208;-84
2021/11/06 04:53:30;;;;;;;6.77;6.17;;;;;;;7.65;80.14;96730.50;4958945;29;20663;-84
2021/11/06 04:55:58;;;;;;;7.53;6.77;;;;;;;7.63;79.96;96729.81;4957841;29;20205;-84
2021/11/06 04:58:25;;;;;;;6.90;6.30;;;;;;;7.65;79.71;96738.19;4967514;28;20235;-84
2021/11/06 05:00:53;;;;;;;7.20;6.50;;;;;;;7.60;79.38;96730.88;4978759;28;20229;-81
2021/11/06 05:03:19;;;;;;;7.20;6.50;;;;;;;7.58;79.32;96734.53;4978154;28;20235;-81
2021/11/06 05:05:46;;;;;;;6.90;6.20;;;;;;;7.58;79.26;96739.66;4978051;28;20215;-81
2021/11/06 05:08:12;;;;;;;6.27;5.67;;;;;;;7.47;78.54;96737.19;4977600;28;20739;-83
2021/11/06 05:10:39;;;;;;;6.10;5.50;;;;;;;7.46;79.14;96731.25;4977981;28;20208;-85
2021/11/06 05:13:07;;;;;;;8.67;5.27;;;;;;;7.44;78.20;96740.81;4978071;28;20255;-82
2021/11/06 05:15:33;;;;;;;4.93;4.43;;;;;;;7.39;77.28;96737.00;4977870;28;20215;-82
2021/11/06 05:18:00;;;;;;;5.23;4.10;;;;;;;7.32;77.21;96726.44;4966022;28;20240;-82
2021/11/06 05:20:26;;;;;;;4.50;4.10;;;;;;;7.30;77.31;96735.22;4958328;29;20213;-83
2021/11/06 05:22:53;;;;;;;4.13;3.83;;;;;;;7.32;77.45;96736.69;4958576;29;20224;-83
2021/11/06 05:25:19;;;;;;;4.53;3.77;;;;;;;7.34;77.00;96736.56;4958573;29;20651;-80
2021/11/06 05:27:46;;;;;;;5.13;4.63;;;;;;;7.25;76.95;96736.41;4958306;28;20228;-85
2021/11/06 05:30:14;;;;;;;4.40;4.00;;;;;;;7.22;77.42;96731.53;4958238;29;20216;-82
2021/11/06 05:32:41;;;;;;;4.20;3.80;;;;;;;7.23;76.76;96745.16;4959210;29;20205;-83
2021/11/06 05:35:09;;;;;;;4.53;4.13;;;;;;;7.19;77.34;96736.91;4958603;29;20248;-82
2021/11/06 05:37:35;;;;;;;4.50;4.10;;;;;;;7.19;77.08;96739.47;4957676;28;20297;-83
2021/11/06 05:40:02;;;;;;;4.50;4.10;;;;;;;7.20;77.07;96743.66;4958700;29;20208;-84
2021/11/06 05:42:28;;;;;;;5.57;5.03;;;;;;;7.19;76.71;96747.16;4958685;29;20229;-84
2021/11/06 05:44:55;;;;;;;5.60;4.77;;;;;;;7.12;76.34;96740.91;4958623;29;20247;-84
2021/11/06 05:47:23;;;;;;;4.53;4.13;;;;;;;6.96;76.98;96742.28;4958631;28;20724;-84
2021/11/06 05:49:49;;;;;;;4.80;4.40;;;;;;;6.94;77.18;96745.78;4958477;29;20204;-85
2021/11/06 05:52:15;;;;;;;4.40;4.00;;;;;;;6.93;76.77;96745.91;4958664;29;20209;-83
2021/11/06 05:54:42;;;;;;;4.80;4.30;;;;;;;6.94;76.54;96748.34;4958140;29;20205;-80
2021/11/06 05:57:08;;;;;;;4.53;4.10;;;;;;;6.96;76.66;96753.34;4958228;28;20224;-81
2021/11/06 05:59:38;;;;;;;5.17;4.47;;;;;;;6.90;76.50;96752.13;4958296;29;20220;-80
2021/11/06 06:02:05;;;;;;;4.90;4.40;;;;;;;6.92;76.57;96741.75;4967278;28;20283;-83
2021/11/06 06:04:34;;;;;;;4.60;4.20;;;;;;;6.91;76.74;96746.06;4976479;28;20278;-81
2021/11/06 06:07:02;;;;;;;4.87;4.47;;;;;;;6.91;76.53;96755.50;4969714;28;20828;-84
2021/11/06 06:09:29;;;;;;;6.30;4.70;;;;;;;6.88;76.09;96756.56;4958291;29;20205;-82
2021/11/06 06:11:55;;;;;;;5.63;5.03;;;;;;;6.79;76.11;96757.28;4957505;29;20268;-82
2021/11/06 06:14:22;;;;;;;5.43;4.93;;;;;;;6.74;76.57;96761.97;4974580;28;20553;-81
2021/11/06 06:16:48;;;;;;;5.77;4.77;;;;;;;6.76;76.03;96762.66;4974987;28;20211;-81
2021/11/06 06:19:15;;;;;;;5.60;5.00;;;;;;;6.77;75.82;96764.28;4957136;29;20236;-84
2021/11/06 06:21:43;;;;;;;5.23;4.73;;;;;;;6.71;76.11;96759.66;4957652;29;20204;-83
2021/11/06 06:24:09;;;;;;;5.10;4.60;;;;;;;6.72;76.26;96765.59;4957016;29;20228;-81
2021/11/06 06:26:36;;;;;;;5.47;4.97;;;;;;;6.69;75.93;96768.41;4956894;29;20243;-81
2021/11/06 06:29:02;;;;;;;5.60;5.00;;;;;;;6.71;75.91;96769.09;4956536;28;20227;-82
2021/11/06 06:31:29;;;;;;;4.40;4.00;;;;;;;6.62;76.21;96783.41;4956845;29;20209;-82
2021/11/06 06:33:55;;;;;;;4.80;4.40;;;;;;;6.61;76.57;96786.09;4956213;29;20538;-84
2021/11/06 06:36:22;;;;;;;5.07;4.57;;;;;;;6.63;75.95;96789.34;4956699;29;20208;-82
2021/11/06 06:38:49;;;;;;;5.23;4.73;;;;;;;6.72;75.40;96796.31;4956638;28;20232;-82
2021/11/06 06:41:16;;;;;;;5.23;4.10;;;;;;;6.92;74.71;96792.97;4956461;29;20211;-82
2021/11/06 06:43:43;;;;;;;4.30;3.90;;;;;;;7.02;73.97;96791.28;4956715;29;20248;-82
2021/11/06 06:46:09;;;;;;;5.80;4.37;;;;;;;7.10;74.13;96785.53;4955458;28;20291;-82
2021/11/06 06:48:35;;;;;;;4.87;4.40;;;;;;;7.35;73.44;96794.56;4955912;28;20720;-81
2021/11/06 06:51:02;;;;;;;3.90;3.60;;;;;;;7.58;72.96;96796.84;4956265;29;20200;-84
2021/11/06 06:53:29;;;;;;;4.27;3.87;;;;;;;7.92;71.78;96794.81;4956241;29;20225;-82
2021/11/06 06:55:57;;;;;;;5.07;4.00;;;;;;;8.25;69.89;96796.28;4956435;29;20220;-83
2021/11/06 06:58:23;;;;;;;5.20;3.93;;;;;;;8.68;69.13;96795.09;4956000;28;20225;-82
2021/11/06 07:00:50;;;;;;;4.10;3.70;;;;;;;9.02;67.69;96798.09;4956134;29;20211;-83
2021/11/06 07:03:16;;;;;;;4.67;4.27;;;;;;;9.29;66.23;96803.31;4974664;28;20707;-82
2021/11/06 07:05:42;;;;;;;4.17;3.80;;;;;;;9.44;66.39;96800.28;4974924;28;20212;-84
2021/11/06 07:08:09;;;;;;;4.00;3.60;;;;;;;9.65;66.05;96800.91;4975379;28;20232;-83
2021/11/06 07:10:35;;;;;;;4.13;3.73;;;;;;;9.80;65.44;96803.84;4975228;28;20208;-82
2021/11/06 07:13:04;;;;;;;5.13;4.00;;;;;;;9.87;65.29;96805.69;4962128;28;20229;-83
2021/11/06 07:15:30;;;;;;;4.77;3.40;;;;;;;9.90;64.44;96804.63;4955838;28;20208;-83
2021/11/06 07:17:57;;;;;;;3.80;3.50;;;;;;;9.86;64.25;96804.06;4950944;28;20236;-82
2021/11/06 07:20:23;;;;;;;3.77;3.30;;;;;;;9.79;64.53;96808.19;4955987;29;20205;-84
2021/11/06 07:22:50;;;;;;;3.80;3.30;;;;;;;9.70;64.76;96812.41;4956730;28;20235;-82
2021/11/06 07:25:16;;;;;;;3.70;3.40;;;;;;;9.65;65.17;96803.47;4955218;29;20295;-84
2021/11/06 07:27:43;;;;;;;3.60;3.30;;;;;;;9.59;65.00;96806.63;4955344;28;20232;-84
2021/11/06 07:30:12;;;;;;;5.17;3.30;;;;;;;9.63;65.24;96806.19;4954976;29;20767;-81
2021/11/06 07:32:39;;;;;;;3.17;2.87;;;;;;;9.73;65.39;96819.03;4955394;29;20252;-84
2021/11/06 07:35:06;;;;;;;3.63;2.90;;;;;;;9.78;64.61;96811.72;4956629;28;20205;-84
2021/11/06 07:37:33;;;;;;;3.23;2.80;;;;;;;9.85;64.04;96814.50;4956806;28;20704;-82
2021/11/06 07:40:00;;;;;;;2.80;2.60;;;;;;;9.94;63.50;96814.47;4950221;28;20555;-84
2021/11/06 07:42:28;;;;;;;2.70;2.50;;;;;;;10.02;62.49;96813.75;4964078;28;20287;-85
2021/11/06 07:44:54;;;;;;;2.97;2.67;;;;;;;10.16;62.83;96827.94;4974385;28;20250;-82
2021/11/06 07:47:22;;;;;;;2.77;2.57;;;;;;;10.25;62.64;96830.47;4968989;28;20216;-83
2021/11/06 07:49:49;;;;;;;3.40;2.63;;;;;;;10.50;62.01;96834.13;4974824;28;20215;-83
2021/11/06 07:52:15;;;;;;;3.03;2.83;;;;;;;10.68;60.83;96827.22;4974161;28;20259;-83
2021/11/06 07:54:42;;;;;;;3.20;2.90;;;;;;;10.88;60.28;96833.06;4974924;28;20588;-83
2021/11/06 07:57:08;;;;;;;4.90;3.00;;;;;;;11.04;59.68;96824.66;4973827;28;20716;-85
2021/11/06 07:59:35;;;;;;;2.87;2.67;;;;;;;11.24;59.03;96835.59;4957952;28;20209;-84
2021/11/06 08:02:01;;;;;;;3.10;2.83;;;;;;;11.36;58.65;96837.78;4954462;28;20204;-82
2021/11/06 08:04:29;;;;;;;3.40;3.10;;;;;;;11.37;58.17;96833.44;4955212;29;20603;-82
2021/11/06 08:06:56;;;;;;;3.63;3.00;;;;;;;11.54;58.70;96840.34;4955916;28;20205;-85
2021/11/06 08:09:22;;;;;;;3.13;2.83;;;;;;;11.72;58.93;96835.13;4954498;29;20743;-84
2021/11/06 08:11:49;;;;;;;4.20;3.17;;;;;;;11.83;57.92;96844.41;4954417;28;20635;-84
2021/11/06 08:14:15;;;;;;;3.70;3.33;;;;;;;11.85;58.04;96837.31;4953968;29;20245;-83
2021/11/06 08:16:43;;;;;;;4.30;3.40;;;;;;;11.87;57.44;96837.97;4953634;28;20232;-83
2021/11/06 08:19:10;;;;;;;4.30;3.90;;;;;;;11.91;58.22;96834.13;4953868;29;20252;-81
2021/11/06 08:21:37;;;;;;;4.00;3.70;;;;;;;11.89;58.07;96831.72;4954239;29;20271;-83
2021/11/06 08:24:04;;;;;;;4.27;3.87;;;;;;;11.84;57.92;96831.34;4953955;29;20235;-80
2021/11/06 08:26:31;;;;;;;4.07;3.60;;;;;;;11.82;58.25;96835.03;4954085;29;20215;-83
2021/11/06 08:28:57;;;;;;;4.80;3.67;;;;;;;11.71;57.87;96833.50;4954301;28;20228;-82
2021/11/06 08:31:24;;;;;;;4.63;3.87;;;;;;;11.43;59.81;96830.25;4954695;29;20204;-82
2021/11/06 08:33:51;;;;;;;5.00;4.60;;;;;;;11.35;60.15;96832.78;4954267;29;20668;-82
2021/11/06 08:36:17;;;;;;;4.70;4.30;;;;;;;11.36;60.71;96826.66;4963526;28;20216;-82
2021/11/06 08:38:45;;;;;;;5.10;4.60;;;;;;;11.57;60.56;96824.53;4954129;28;20229;-83
2021/11/06 08:41:14;;;;;;;5.77;5.27;;;;;;;11.58;60.04;96823.59;4954646;29;20216;-82
2021/11/06 08:43:40;;;;;;;5.53;5.03;;;;;;;11.66;60.01;96828.81;4954444;29;20224;-82
2021/11/06 08:46:07;;;;;;;5.63;5.13;;;;;;;11.81;60.11;96818.75;4953029;28;20236;-82
2021/11/06 08:48:35;;;;;;;8.37;6.07;;;;;;;11.76;60.65;96819.19;4954005;28;20600;-84
2021/11/06 08:51:02;;;;;;;6.90;6.30;;;;;;;11.84;60.54;96823.59;4953877;29;20264;-85
2021/11/06 08:53:28;;;;;;;6.57;5.97;;;;;;;12.04;60.33;96813.84;4951278;28;20196;-82
2021/11/06 08:55:56;;;;;;;6.70;6.03;;;;;;;12.30;59.03;96822.34;4953506;28;20600;-83
2021/11/06 08:58:23;;;;;;;7.60;6.90;;;;;;;12.48;58.91;96817.09;4961516;28;20275;-84
2021/11/06 09:00:54;;;;;;;7.50;6.80;;;;;;;12.53;59.37;96819.16;4971940;28;20201;-80
2021/11/06 09:03:25;;;;;;;8.00;7.30;;;;;;;12.50;58.57;96807.41;4972115;28;20220;-82
2021/11/06 09:05:54;;;;;;;8.00;7.20;;;;;;;12.58;58.51;96801.44;4971600;28;20211;-82
2021/11/06 09:08:22;;;;;;;7.90;7.20;;;;;;;12.66;58.62;96797.09;4960690;28;20229;-84
2021/11/06 09:10:49;;;;;;;8.57;7.77;;;;;;;12.74;57.78;96811.78;4953733;28;20212;-84
2021/11/06 09:13:17;;;;;;;8.23;7.43;;;;;;;12.77;58.22;96804.53;4973638;28;20201;-82
2021/11/06 09:15:43;;;;;;;8.10;7.40;;;;;;;12.79;58.26;96812.94;4975910;28;20636;-79
2021/11/06 09:18:11;;;;;;;8.50;7.57;;;;;;;12.88;58.18;96813.75;4962123;28;20228;-80
2021/11/06 09:20:38;;;;;;;9.60;8.10;;;;;;;12.94;57.91;96812.28;4956670;29;20227;-82
2021/11/06 09:23:05;;;;;;;8.60;7.80;;;;;;;13.12;58.18;96820.69;4955587;29;20664;-84
2021/11/06 09:25:32;;;;;;;8.33;7.53;;;;;;;13.30;57.89;96817.97;4956213;29;20197;-81
2021/11/06 09:27:58;;;;;;;9.57;8.67;;;;;;;13.14;57.79;96816.16;4955762;29;20585;-82
2021/11/06 09:30:26;;;;;;;8.47;7.63;;;;;;;13.01;57.45;96824.44;4956077;29;20207;-80
2021/11/06 09:32:53;;;;;;;8.43;7.63;;;;;;;13.07;57.47;96823.78;4955598;29;20200;-82
2021/11/06 09:35:19;;;;;;;8.63;7.87;;;;;;;13.04;58.06;96818.94;4966070;28;20696;-82
2021/11/06 09:37:46;;;;;;;8.63;7.73;;;;;;;12.80;58.40;96822.31;4975334;28;20228;-84
2021/11/06 09:40:12;;;;;;;10.20;8.13;;;;;;;12.63;59.11;96819.84;4974975;28;20211;-79
2021/11/06 09:42:41;;;;;;;9.43;8.53;;;;;;;12.57;59.26;96818.69;4975450;28;20286;-82
2021/11/06 09:45:09;;;;;;;9.70;8.70;;;;;;;12.58;59.30;96815.16;4974434;28;20310;-83
2021/11/06 09:47:42;;;;;;;9.53;8.70;;;;;;;12.35;59.14;96821.88;4974521;28;20216;-80
2021/11/06 09:50:09;;;;;;;10.43;9.37;;;;;;;12.29;59.66;96822.50;4975600;28;20302;-83
2021/11/06 09:52:36;;;;;;;9.80;8.80;;;;;;;12.23;60.30;96813.59;4975276;28;20204;-81
2021/11/06 09:55:02;;;;;;;9.70;8.80;;;;;;;12.13;60.13;96815.50;4973862;28;20196;-81
2021/11/06 09:57:29;;;;;;;9.90;9.00;;;;;;;11.99;60.74;96816.09;4955858;28;20224;-80
2021/11/06 09:59:55;;;;;;;10.93;9.93;;;;;;;12.15;61.02;96817.91;4955217;29;20201;-82
2021/11/06 10:02:22;;;;;;;10.43;9.30;;;;;;;12.53;60.00;96814.81;4955657;29;20205;-83
2021/11/06 10:04:50;;;;;;;10.23;9.23;;;;;;;12.84;59.58;96811.66;4955955;29;20260;-81
2021/11/06 10:07:20;;;;;;;10.30;9.30;;;;;;;13.07;58.25;96813.44;4955395;28;20263;-84
2021/11/06 10:10:02;;;;;;;10.67;9.57;;;;;;;13.15;57.19;96807.47;4955763;29;20236;-85
2021/11/06 10:12:44;;;;;;;10.77;9.70;;;;;;;13.23;56.88;96804.09;4955163;29;20211;-83
2021/11/06 10:15:11;;;;;;;9.27;8.47;;;;;;;13.03;57.08;96804.38;4955715;29;20209;-83
2021/11/06 10:17:38;;;;;;;10.40;9.40;;;;;;;12.62;58.18;96800.16;4954927;28;20241;-84
2021/11/06 10:20:29;;;;;;;10.00;9.03;;;;;;;12.42;58.67;96802.19;4954910;29;20212;-84
2021/11/06 10:23:01;;;;;;;10.10;9.17;;;;;;;12.13;57.97;96804.34;4955812;29;20240;-86
2021/11/06 10:25:28;;;;;;;10.63;9.63;;;;;;;11.83;58.87;96806.50;4954530;29;20676;-85
2021/11/06 10:27:57;;;;;;;10.17;9.17;;;;;;;11.93;59.74;96804.59;4952631;28;20572;-84
2021/11/06 10:30:27;;;;;;;10.20;9.30;;;;;;;12.04;59.74;96812.09;4954041;29;20216;-85
2021/11/06 10:33:04;;;;;;;10.90;9.60;;;;;;;12.05;60.15;96805.16;4955041;29;20278;-85
2021/11/06 10:35:34;;;;;;;12.37;10.03;;;;;;;12.01;60.24;96799.47;4966894;28;20313;-84
2021/11/06 10:38:04;;;;;;;11.20;10.20;;;;;;;11.96;60.14;96804.28;4974118;28;20296;-85
2021/11/06 10:40:35;;;;;;;12.73;11.43;;;;;;;11.96;60.58;96798.31;4974541;28;20700;-85
2021/11/06 10:43:03;;;;;;;11.60;10.50;;;;;;;11.99;60.59;96798.03;4975403;28;20575;-85
2021/11/06 10:45:31;;;;;;;11.77;10.67;;;;;;;11.92;60.03;96790.09;4974458;28;20243;-84
2021/11/06 10:48:03;;;;;;;10.70;9.70;;;;;;;11.95;60.56;96783.78;4974281;28;20220;-84
2021/11/06 10:50:57;;;;;;;11.23;10.13;;;;;;;12.21;59.98;96776.81;4974415;28;20204;-83
2021/11/06 10:53:42;;;;;;;10.73;9.63;;;;;;;12.31;59.12;96768.94;4974666;28;20211;-80
2021/11/06 10:56:31;;;;;;;10.03;9.00;;;;;;;12.44;58.45;96769.28;4974630;28;20583;-84
2021/11/06 10:59:00;;;;;;;9.23;8.33;;;;;;;12.69;57.76;96764.97;4975666;28;20228;-83
2021/11/06 11:01:29;;;;;;;9.80;8.90;;;;;;;12.89;58.07;96760.28;4956274;28;20411;-84
2021/11/06 11:04:02;;;;;;;15.20;13.70;;;;;;;12.98;57.59;96754.13;4955636;29;20228;-84
2021/11/06 11:06:37;;;;;;;14.13;12.57;;;;;;;12.95;56.15;96757.84;4955296;29;20212;-82
2021/11/06 11:09:08;;;;;;;8.20;7.50;;;;;;;12.66;56.04;96758.34;4955756;28;20224;-82
2021/11/06 11:11:35;;;;;;;8.40;7.50;;;;;;;12.62;56.47;96762.19;4955828;29;20246;-83
2021/11/06 11:14:04;;;;;;;7.70;6.90;;;;;;;12.89;56.39;96749.94;4955555;29;20209;-81
2021/11/06 11:16:32;;;;;;;7.87;6.63;;;;;;;13.20;55.85;96744.94;4955371;29;20696;-81
2021/11/06 11:19:05;;;;;;;7.07;6.30;;;;;;;13.55;55.29;96754.06;4935933;29;20229;-81
2021/11/06 11:21:38;;;;;;;6.50;5.90;;;;;;;13.71;54.70;96751.41;4948267;28;20212;-84
2021/11/06 11:24:08;;;;;;;7.07;5.73;;;;;;;13.89;53.05;96749.41;4974844;28;20227;-84
2021/11/06 11:26:38;;;;;;;5.20;4.70;;;;;;;13.88;52.27;96741.81;4975130;28;20565;-84
2021/11/06 11:29:09;;;;;;;4.80;4.40;;;;;;;13.57;50.08;96744.34;4974107;28;20224;-85
2021/11/06 11:31:40;;;;;;;4.23;3.93;;;;;;;13.41;49.52;96740.03;4974089;28;20207;-85
2021/11/06 11:34:08;;;;;;;4.87;4.37;;;;;;;13.24;50.20;96741.84;4974444;28;20833;-82
2021/11/06 11:36:38;;;;;;;5.17;4.53;;;;;;;13.20;50.33;96743.16;4973689;28;20208;-83
2021/11/06 11:39:06;;;;;;;4.70;4.30;;;;;;;13.16;50.56;96730.69;4973677;28;20227;-82